createdAt,value
2022-11-11T00:00:02.962Z,102950.97
2022-11-11T00:02:51.898Z,102929.25
2022-11-11T00:05:38.808Z,102996.13
2022-11-11T00:08:25.755Z,102950.97
2022-11-11T00:11:14.802Z,102986.84
2022-11-11T00:14:03.269Z,102982.22
2022-11-11T00:17:08.010Z,102970.63
2022-11-11T00:20:12.312Z,102923.13
2022-11-11T00:23:16.639Z,102991.44
2022-11-11T00:26:32.709Z,102892.19
2022-11-11T00:29:13.603Z,102984.16
2022-11-11T00:32:18.120Z,102942.13
2022-11-11T00:35:22.794Z,102861.91
2022-11-11T00:38:11.925Z,102989.16
2022-11-11T00:40:58.972Z,102950.75
2022-11-11T00:43:48.729Z,102942.56
2022-11-11T00:46:54.850Z,103008.34
2022-11-11T00:49:59.351Z,102778.91
2022-11-11T00:52:49.415Z,102814.97
2022-11-11T00:55:36.449Z,102865.56
2022-11-11T00:58:24.465Z,102898.16
2022-11-11T01:01:12.031Z,102994.94
2022-11-11T01:04:01.581Z,102956.78
2022-11-11T01:06:48.386Z,102941.44
2022-11-11T01:09:35.472Z,103001.28
2022-11-11T01:12:22.935Z,102817.72
2022-11-11T01:15:11.436Z,103018.81
2022-11-11T01:17:58.395Z,102971.44
2022-11-11T01:20:47.496Z,102968.91
2022-11-11T01:23:37.439Z,102959.09
2022-11-11T01:26:31.441Z,102936.13
2022-11-11T01:29:18.915Z,102966.16
2022-11-11T01:32:05.913Z,102823.13
2022-11-11T01:34:52.894Z,102864.75
2022-11-11T01:37:41.206Z,102910.66
2022-11-11T01:40:28.466Z,102977.22
2022-11-11T01:43:25.024Z,102964.88
2022-11-11T01:46:29.491Z,102928.81
2022-11-11T01:49:25.830Z,102808.56
2022-11-11T01:52:19.684Z,102936.75
2022-11-11T01:55:12.743Z,102786.44
2022-11-11T01:58:03.871Z,102809.66
2022-11-11T02:00:50.763Z,102871.22
2022-11-11T02:03:41.907Z,102960.31
2022-11-11T02:06:29.419Z,102983.81
2022-11-11T02:09:17.208Z,102936.00
2022-11-11T02:12:27.983Z,102938.44
2022-11-11T02:15:15.512Z,102984.03
2022-11-11T02:18:03.016Z,102980.88
2022-11-11T02:20:50.731Z,103001.41
2022-11-11T02:23:44.615Z,102998.84
2022-11-11T02:26:36.184Z,102982.47
2022-11-11T02:29:24.900Z,102924.13
2022-11-11T02:32:12.125Z,102962.06
2022-11-11T02:34:59.268Z,102850.78
2022-11-11T02:37:50.909Z,102930.59
2022-11-11T02:41:02.671Z,102916.78
2022-11-11T02:43:51.555Z,102941.91
2022-11-11T02:46:41.334Z,102980.41
2022-11-11T02:49:28.663Z,102842.78
2022-11-11T02:52:15.651Z,102905.44
2022-11-11T02:55:04.298Z,102878.75
2022-11-11T02:57:51.308Z,102825.81
2022-11-11T03:00:40.093Z,102881.13
2022-11-11T03:03:27.121Z,102732.25
2022-11-11T03:06:14.629Z,102815.28
2022-11-11T03:09:02.030Z,102950.34
2022-11-11T03:11:48.794Z,102957.31
2022-11-11T03:14:36.133Z,102909.69
2022-11-11T03:17:42.871Z,102898.16
2022-11-11T03:20:47.615Z,102953.72
2022-11-11T03:23:34.927Z,102894.88
2022-11-11T03:26:22.216Z,102953.41
2022-11-11T03:29:08.969Z,102956.28
2022-11-11T03:31:56.224Z,102823.69
2022-11-11T03:34:45.176Z,102958.81
2022-11-11T03:37:49.724Z,102872.53
2022-11-11T03:40:36.694Z,102963.56
2022-11-11T03:43:27.163Z,102909.31
2022-11-11T03:46:14.599Z,102826.84
2022-11-11T03:49:01.627Z,102958.06
2022-11-11T03:51:50.196Z,102877.41
2022-11-11T03:54:37.562Z,102777.63
2022-11-11T03:57:33.524Z,102954.16
2022-11-11T04:00:22.853Z,102957.75
2022-11-11T04:03:30.684Z,102947.72
2022-11-11T04:06:35.578Z,102925.22
2022-11-11T04:09:41.867Z,102950.34
2022-11-11T04:12:30.208Z,102985.41
2022-11-11T04:15:34.449Z,102989.59
2022-11-11T04:18:42.627Z,102921.72
2022-11-11T04:21:43.819Z,102994.88
2022-11-11T04:24:50.240Z,102954.69
2022-11-11T04:27:40.353Z,102909.00
2022-11-11T04:30:26.279Z,102946.84
2022-11-11T04:33:16.509Z,102811.13
2022-11-11T04:36:03.863Z,102966.00
2022-11-11T04:39:08.487Z,102775.44
2022-11-11T04:42:12.343Z,102807.44
2022-11-11T04:45:18.279Z,102831.72
2022-11-11T04:48:08.456Z,102786.06
2022-11-11T04:50:55.388Z,102877.19
2022-11-11T04:53:42.239Z,102948.63
2022-11-11T04:56:46.935Z,102960.78
2022-11-11T04:59:35.371Z,102915.22
2022-11-11T05:02:39.648Z,102969.72
2022-11-11T05:05:27.719Z,102899.47
2022-11-11T05:08:32.277Z,102934.97
2022-11-11T05:11:20.319Z,102985.03
2022-11-11T05:14:28.288Z,102937.91
2022-11-11T05:17:34.345Z,102951.56
2022-11-11T05:20:49.975Z,102940.66
2022-11-11T05:23:51.047Z,102978.69
2022-11-11T05:26:38.291Z,102995.50
2022-11-11T05:29:25.453Z,103001.59
2022-11-11T05:32:12.261Z,102992.50
2022-11-11T05:35:00.625Z,102844.34
2022-11-11T05:38:10.000Z,102775.56
2022-11-11T05:40:57.443Z,102984.13
2022-11-11T05:43:44.998Z,102760.31
2022-11-11T05:46:32.389Z,102970.78
2022-11-11T05:49:19.585Z,102774.00
2022-11-11T05:52:09.253Z,102741.81
2022-11-11T05:54:56.372Z,102981.63
2022-11-11T05:57:43.489Z,102974.41
2022-11-11T06:00:30.322Z,102769.22
2022-11-11T06:03:17.377Z,102828.03
2022-11-11T06:06:04.571Z,102861.00
2022-11-11T06:08:52.990Z,102809.19
2022-11-11T06:11:40.252Z,102953.50
2022-11-11T06:14:27.175Z,102983.00
2022-11-11T06:17:14.346Z,102912.44
2022-11-11T06:20:01.278Z,102967.22
2022-11-11T06:22:57.273Z,102821.59
2022-11-11T06:26:03.384Z,102979.72
2022-11-11T06:28:52.836Z,102942.94
2022-11-11T06:31:40.105Z,102989.44
2022-11-11T06:34:27.365Z,102738.94
2022-11-11T06:37:14.425Z,102973.13
2022-11-11T06:40:01.603Z,103009.03
2022-11-11T06:42:50.073Z,102956.41
2022-11-11T06:45:37.767Z,102720.41
2022-11-11T06:48:27.242Z,102987.41
2022-11-11T06:51:15.121Z,103005.84
2022-11-11T06:54:02.255Z,102924.00
2022-11-11T06:56:50.202Z,102903.78
2022-11-11T06:59:39.029Z,102893.34
2022-11-11T07:02:26.129Z,102970.44
2022-11-11T07:05:13.608Z,102964.97
2022-11-11T07:08:04.223Z,103028.63
2022-11-11T07:10:50.933Z,102950.91
2022-11-11T07:13:38.215Z,103038.75
2022-11-11T07:16:26.974Z,103021.97
2022-11-11T07:19:14.448Z,103045.03
2022-11-11T07:22:01.802Z,103044.88
2022-11-11T07:24:48.499Z,103051.22
2022-11-11T07:27:39.416Z,102833.19
2022-11-11T07:30:26.512Z,103050.38
2022-11-11T07:33:15.044Z,102760.81
2022-11-11T07:36:02.688Z,102960.06
2022-11-11T07:38:49.849Z,102777.28
2022-11-11T07:41:37.502Z,103081.25
2022-11-11T07:44:24.516Z,103085.97
2022-11-11T07:47:11.531Z,103074.72
2022-11-11T07:50:04.497Z,103087.16
2022-11-11T07:52:54.881Z,102915.44
2022-11-11T07:55:41.945Z,103103.72
2022-11-11T07:58:29.065Z,103041.69
2022-11-11T08:01:16.213Z,103087.94
2022-11-11T08:04:03.400Z,103054.25
2022-11-11T08:06:52.179Z,103116.16
2022-11-11T08:09:39.257Z,102784.78
2022-11-11T08:12:44.164Z,103061.31
2022-11-11T08:15:31.316Z,103097.56
2022-11-11T08:18:18.232Z,103122.19
2022-11-11T08:21:06.656Z,103118.00
2022-11-11T08:27:02.755Z,103107.19
2022-11-11T08:29:50.565Z,102957.25
2022-11-11T08:32:38.088Z,102988.31
2022-11-11T08:35:25.211Z,102973.88
2022-11-11T08:38:13.397Z,103111.66
2022-11-11T08:41:04.772Z,102965.75
2022-11-11T08:43:54.832Z,103122.72
2022-11-11T08:46:42.257Z,103125.06
2022-11-11T08:49:29.515Z,103128.66
2022-11-11T08:52:17.127Z,102865.00
2022-11-11T08:55:04.515Z,103088.69
2022-11-11T08:58:00.237Z,103075.78
2022-11-11T09:00:47.490Z,103108.66
2022-11-11T09:03:37.713Z,102876.47
2022-11-11T09:06:24.943Z,103093.59
2022-11-11T09:09:12.527Z,103131.53
2022-11-11T09:12:02.461Z,103018.28
2022-11-11T09:14:50.823Z,102955.22
2022-11-11T09:17:38.397Z,102952.81
2022-11-11T09:20:26.655Z,102991.69
2022-11-11T09:23:14.130Z,102921.69
2022-11-11T09:26:04.300Z,102887.50
2022-11-11T09:28:51.741Z,102894.72
2022-11-11T09:31:45.807Z,103170.94
2022-11-11T09:34:33.138Z,102899.28
2022-11-11T09:37:20.546Z,103061.84
2022-11-11T09:40:11.967Z,103090.31
2022-11-11T09:43:11.807Z,103115.28
2022-11-11T09:46:17.965Z,102929.19
2022-11-11T09:49:50.247Z,103047.81
2022-11-11T09:52:45.386Z,102936.84
2022-11-11T09:55:37.951Z,103146.47
2022-11-11T09:58:30.751Z,103161.16
2022-11-11T10:01:24.088Z,103163.47
2022-11-11T10:04:29.283Z,102901.59
2022-11-11T10:07:27.965Z,103046.81
2022-11-11T10:10:25.011Z,103131.16
2022-11-11T10:13:17.388Z,103154.91
2022-11-11T10:16:15.952Z,103165.22
2022-11-11T10:19:27.106Z,103046.00
2022-11-11T10:22:23.017Z,102865.41
2022-11-11T10:25:23.021Z,103178.63
2022-11-11T10:28:17.841Z,103109.09
2022-11-11T10:31:12.587Z,103164.66
2022-11-11T10:34:05.115Z,103163.00
2022-11-11T10:36:58.067Z,103165.19
2022-11-11T10:40:02.224Z,103005.66
2022-11-11T10:42:49.380Z,103170.38
2022-11-11T10:45:47.019Z,103121.44
2022-11-11T10:48:46.441Z,103017.66
2022-11-11T10:51:39.548Z,103110.59
2022-11-11T10:54:38.336Z,103104.25
2022-11-11T10:57:36.679Z,102917.13
2022-11-11T11:00:23.722Z,103160.66
2022-11-11T11:03:18.726Z,103158.94
2022-11-11T11:06:13.401Z,103161.84
2022-11-11T11:09:09.695Z,103140.16
2022-11-11T11:12:06.248Z,103144.66
2022-11-11T11:15:00.369Z,103153.06
2022-11-11T11:17:57.408Z,103108.84
2022-11-11T11:20:58.466Z,103129.19
2022-11-11T11:23:47.370Z,103091.69
2022-11-11T11:26:45.808Z,103110.47
2022-11-11T11:29:36.724Z,103130.53
2022-11-11T11:32:30.886Z,103141.28
2022-11-11T11:35:35.001Z,103101.97
2022-11-11T11:38:22.339Z,103106.94
2022-11-11T11:41:09.583Z,103132.84
2022-11-11T11:43:56.328Z,103099.16
2022-11-11T11:46:46.963Z,103122.13
2022-11-11T11:49:53.534Z,103085.22
2022-11-11T11:52:50.295Z,103064.50
2022-11-11T11:55:41.176Z,103090.09
2022-11-11T11:58:42.780Z,103041.88
2022-11-11T12:01:44.123Z,103104.38
2022-11-11T12:05:03.725Z,103105.81
2022-11-11T12:08:10.765Z,103081.94
2022-11-11T12:11:06.768Z,103103.72
2022-11-11T12:14:17.355Z,103107.81
2022-11-11T12:17:17.183Z,103070.22
2022-11-11T12:20:18.993Z,103073.91
2022-11-11T12:23:41.425Z,103082.63
2022-11-11T12:26:38.675Z,103058.81
2022-11-11T12:29:43.643Z,103084.22
2022-11-11T12:33:20.475Z,103052.63
2022-11-11T12:36:17.439Z,103063.38
2022-11-11T12:39:17.995Z,103077.38
2022-11-11T12:42:20.324Z,103056.75
2022-11-11T12:45:19.140Z,103065.13
2022-11-11T12:48:26.206Z,103078.09
2022-11-11T12:51:23.972Z,103071.66
2022-11-11T12:54:25.049Z,103037.38
2022-11-11T12:57:23.909Z,103017.19
2022-11-11T13:00:17.513Z,103046.16
2022-11-11T13:03:27.071Z,103057.75
2022-11-11T13:06:41.513Z,103053.75
2022-11-11T13:09:47.947Z,103048.47
2022-11-11T13:12:41.421Z,103028.59
2022-11-11T13:15:30.179Z,103011.88
2022-11-11T13:18:21.685Z,103039.75
2022-11-11T13:21:12.811Z,103037.19
2022-11-11T13:24:01.377Z,103035.00
2022-11-11T13:26:52.706Z,103048.25
2022-11-11T13:30:06.832Z,103011.00
2022-11-11T13:33:01.429Z,103045.34
2022-11-11T13:35:54.587Z,103054.34
2022-11-11T13:38:48.533Z,103015.78
2022-11-11T13:41:42.409Z,103045.72
2022-11-11T13:44:35.034Z,103053.16
2022-11-11T13:47:26.622Z,103044.78
2022-11-11T13:50:23.879Z,103036.00
2022-11-11T13:53:26.888Z,103054.25
2022-11-11T13:56:23.560Z,103049.97
2022-11-11T13:59:23.717Z,103046.09
2022-11-11T14:02:31.481Z,103046.28
2022-11-11T14:05:24.351Z,103045.28
2022-11-11T14:08:11.690Z,103027.00
2022-11-11T14:11:01.540Z,103029.09
2022-11-11T14:13:48.830Z,103013.13
2022-11-11T14:17:03.120Z,102990.06
2022-11-11T14:19:52.930Z,103002.28
2022-11-11T14:22:40.216Z,103026.59
2022-11-11T14:25:29.705Z,103009.38
2022-11-11T14:28:28.866Z,102982.88
2022-11-11T14:32:12.707Z,103027.88
2022-11-11T14:35:27.622Z,103006.47
2022-11-11T14:38:45.629Z,102984.03
2022-11-11T14:41:50.297Z,103030.75
2022-11-11T14:44:45.506Z,103005.41
2022-11-11T14:47:38.473Z,103020.59
2022-11-11T14:50:47.070Z,103036.00
2022-11-11T14:53:39.562Z,102973.00
2022-11-11T14:56:29.027Z,103028.69
2022-11-11T14:59:26.662Z,103023.38
2022-11-11T15:02:27.226Z,103015.50
2022-11-11T15:05:19.523Z,103035.81
2022-11-11T15:08:23.464Z,103036.81
2022-11-11T15:11:30.011Z,103032.50
2022-11-11T15:14:32.219Z,103051.34
2022-11-11T15:17:29.822Z,103046.03
2022-11-11T15:20:34.333Z,103048.97
2022-11-11T15:23:33.141Z,103032.47
2022-11-11T15:26:27.740Z,103053.25
2022-11-11T15:29:54.422Z,103009.88
2022-11-11T15:33:02.822Z,103037.66
2022-11-11T15:35:58.887Z,103022.94
2022-11-11T15:38:47.435Z,103058.00
2022-11-11T15:41:39.389Z,102975.97
2022-11-11T15:44:31.078Z,103059.16
2022-11-11T15:47:21.090Z,103072.09
2022-11-11T15:50:19.305Z,103017.88
2022-11-11T15:53:10.857Z,103070.59
2022-11-11T15:56:00.785Z,103010.06
2022-11-11T15:58:47.718Z,103058.63
2022-11-11T16:01:35.235Z,103071.97
2022-11-11T16:04:54.436Z,103033.09
2022-11-11T16:07:45.728Z,103081.78
2022-11-11T16:10:36.369Z,103073.41
2022-11-11T16:13:29.531Z,103030.72
2022-11-11T16:16:23.185Z,103010.44
2022-11-11T16:19:26.456Z,102961.78
2022-11-11T16:22:18.438Z,103068.78
2022-11-11T16:25:07.109Z,103066.13
2022-11-11T16:27:54.531Z,103039.34
2022-11-11T16:30:43.381Z,102948.53
2022-11-11T16:33:36.986Z,103028.25
2022-11-11T16:36:24.100Z,102977.72
2022-11-11T16:39:16.241Z,103112.97
2022-11-11T16:42:05.476Z,103105.22
2022-11-11T16:44:59.484Z,103088.78
2022-11-11T16:47:51.846Z,103045.66
2022-11-11T16:50:57.457Z,103128.34
2022-11-11T16:53:49.230Z,102953.63
2022-11-11T16:56:38.359Z,102917.75
2022-11-11T16:59:39.116Z,102957.81
2022-11-11T17:02:26.338Z,103069.66
2022-11-11T17:05:18.156Z,103120.81
2022-11-11T17:08:31.714Z,102926.66
2022-11-11T17:11:46.936Z,102955.81
2022-11-11T17:14:36.668Z,103112.38
2022-11-11T17:17:24.161Z,103052.78
2022-11-11T17:20:16.595Z,103121.63
2022-11-11T17:23:06.440Z,102969.72
2022-11-11T17:25:57.159Z,103081.25
2022-11-11T17:28:44.265Z,103124.94
2022-11-11T17:31:31.793Z,102879.09
2022-11-11T17:34:19.076Z,103099.78
2022-11-11T17:37:07.403Z,102979.75
2022-11-11T17:39:54.324Z,103085.84
2022-11-11T17:42:41.281Z,103096.78
2022-11-11T17:45:28.945Z,103108.09
2022-11-11T17:48:16.042Z,102979.69
2022-11-11T17:51:05.668Z,102828.78
2022-11-11T17:53:54.237Z,103099.13
2022-11-11T17:56:41.134Z,102953.69
2022-11-11T17:59:29.513Z,102874.97
2022-11-11T18:02:16.718Z,102949.50
2022-11-11T18:05:03.763Z,103145.16
2022-11-11T18:07:51.104Z,103154.81
2022-11-11T18:10:39.542Z,102903.34
2022-11-11T18:13:27.785Z,103153.50
2022-11-11T18:16:21.150Z,103021.47
2022-11-11T18:19:08.806Z,102803.78
2022-11-11T18:21:55.768Z,102947.50
2022-11-11T18:24:43.600Z,102896.88
2022-11-11T18:27:32.622Z,103058.88
2022-11-11T18:30:20.323Z,103083.47
2022-11-11T18:33:07.650Z,102945.78
2022-11-11T18:35:54.646Z,103138.09
2022-11-11T18:38:42.654Z,103130.72
2022-11-11T18:41:29.949Z,103151.16
2022-11-11T18:44:18.611Z,102975.25
2022-11-11T18:47:05.559Z,102832.84
2022-11-11T18:49:52.628Z,102881.06
2022-11-11T18:52:39.865Z,102952.19
2022-11-11T18:55:26.975Z,103123.75
2022-11-11T18:58:14.064Z,103073.63
2022-11-11T19:01:13.094Z,102940.34
2022-11-11T19:04:04.169Z,103048.91
2022-11-11T19:06:51.436Z,103151.72
2022-11-11T19:09:39.085Z,103145.31
2022-11-11T19:12:26.368Z,103155.00
2022-11-11T19:15:13.498Z,102984.16
2022-11-11T19:18:01.958Z,103149.34
2022-11-11T19:20:49.601Z,103152.13
2022-11-11T19:23:37.314Z,103149.09
2022-11-11T19:26:28.259Z,103072.56
2022-11-11T19:29:15.314Z,103085.63
2022-11-11T19:32:02.111Z,103059.25
2022-11-11T19:34:50.779Z,102889.41
2022-11-11T19:37:37.486Z,103128.53
2022-11-11T19:40:24.786Z,103153.47
2022-11-11T19:43:12.828Z,103115.44
2022-11-11T19:46:00.916Z,103149.44
2022-11-11T19:48:48.515Z,103093.31
2022-11-11T19:51:37.042Z,103002.41
2022-11-11T19:54:24.407Z,103164.81
2022-11-11T19:57:11.297Z,103100.56
2022-11-11T19:59:58.264Z,103102.16
2022-11-11T20:02:45.777Z,102899.50
2022-11-11T20:05:37.128Z,103157.09
2022-11-11T20:08:25.455Z,103092.94
2022-11-11T20:11:12.592Z,103181.41
2022-11-11T20:14:00.125Z,103186.19
2022-11-11T20:16:47.676Z,103182.22
2022-11-11T20:19:34.970Z,103138.69
2022-11-11T20:22:21.842Z,103200.72
2022-11-11T20:25:10.605Z,103212.69
2022-11-11T20:27:57.776Z,103138.75
2022-11-11T20:30:44.892Z,103223.25
2022-11-11T20:33:32.028Z,103186.22
2022-11-11T20:36:20.054Z,103199.53
2022-11-11T20:39:07.119Z,103208.28
2022-11-11T20:41:55.793Z,103240.59
2022-11-11T20:44:42.930Z,103245.13
2022-11-11T20:47:34.111Z,103093.56
2022-11-11T20:50:21.524Z,103249.91
2022-11-11T20:53:08.250Z,103152.72
2022-11-11T20:56:00.321Z,103207.81
2022-11-11T20:58:49.263Z,103255.44
2022-11-11T21:01:36.085Z,103271.41
2022-11-11T21:04:23.218Z,103245.78
2022-11-11T21:07:10.092Z,103207.50
2022-11-11T21:09:57.676Z,103206.59
2022-11-11T21:12:44.809Z,103265.41
2022-11-11T21:15:33.211Z,103230.09
2022-11-11T21:18:20.609Z,103247.22
2022-11-11T21:21:09.376Z,103102.78
2022-11-11T21:23:58.107Z,103248.66
2022-11-11T21:26:46.252Z,103033.16
2022-11-11T21:29:32.950Z,103103.13
2022-11-11T21:32:21.343Z,103017.78
2022-11-11T21:35:10.075Z,103261.97
2022-11-11T21:37:57.243Z,103261.16
2022-11-11T21:40:44.174Z,103248.25
2022-11-11T21:43:31.465Z,103165.00
2022-11-11T21:46:20.833Z,103220.47
2022-11-11T21:49:09.165Z,103252.63
2022-11-11T21:51:56.306Z,103257.84
2022-11-11T21:54:43.481Z,102940.78
2022-11-11T21:57:30.310Z,103100.19
2022-11-11T22:00:19.171Z,103247.09
2022-11-11T22:03:06.367Z,103166.25
2022-11-11T22:05:54.855Z,103256.78
2022-11-11T22:08:42.771Z,103240.38
2022-11-11T22:11:32.764Z,103139.25
2022-11-11T22:14:19.875Z,103201.03
2022-11-11T22:17:08.347Z,103265.66
2022-11-11T22:19:55.301Z,103201.75
2022-11-11T22:22:43.959Z,103221.91
2022-11-11T22:25:31.005Z,103258.84
2022-11-11T22:28:18.166Z,103216.47
2022-11-11T22:31:11.197Z,103259.94
2022-11-11T22:34:00.985Z,103265.47
2022-11-11T22:36:48.088Z,103259.56
2022-11-11T22:39:36.484Z,103192.97
2022-11-11T22:42:23.422Z,103260.16
2022-11-11T22:45:11.071Z,103242.84
2022-11-11T22:47:57.897Z,103273.81
2022-11-11T22:50:44.982Z,103256.75
2022-11-11T22:53:32.643Z,103164.47
2022-11-11T22:56:21.400Z,103265.22
2022-11-11T22:59:08.313Z,103230.59
2022-11-11T23:01:55.989Z,103168.25
2022-11-11T23:04:43.292Z,103101.16
2022-11-11T23:07:30.404Z,103274.13
2022-11-11T23:10:18.230Z,103277.50
2022-11-11T23:13:07.236Z,103201.13
2022-11-11T23:15:55.347Z,103118.50
2022-11-11T23:18:43.321Z,103064.50
2022-11-11T23:21:30.841Z,102982.31
2022-11-11T23:24:18.034Z,103291.75
2022-11-11T23:27:05.544Z,103284.06
2022-11-11T23:29:54.006Z,103296.78
2022-11-11T23:32:41.410Z,103045.22
2022-11-11T23:35:28.339Z,103135.44
2022-11-11T23:38:15.257Z,103207.59
2022-11-11T23:41:08.586Z,103167.09
2022-11-11T23:43:55.996Z,103273.25
2022-11-11T23:46:44.534Z,103264.75
2022-11-11T23:49:31.591Z,103205.91
2022-11-11T23:52:18.496Z,103194.75
2022-11-11T23:55:08.435Z,103219.88
2022-11-11T23:57:55.371Z,103266.41
